Charlottesville-Albemarle Airport

Airport
ICAO code: 
KCHO
Summary
ICAO Region: 
NAM
Territory: 
Location: 
Charlottesville, Virginia,
Coordinates: 
Aerial View: 
38° 8' 21.756" N, 78° 26' 57.901" W
Metar
Observation
KCHO 040553Z AUTO 04003KT 10SM CLR 04/M02 A3005 RMK AO2 SLP174 T00391017 10100 20039 58014
Station
Charlottesville, Charlottesville-Albemarle Airport
Date/Time
2021-12-04 05:53:00
Wind direction
40°
Wind speed
03 kts
Lowest cloud amount
n/a
Temperature
3.9°C
Dew point
-1.7°C
Humidity
66%
Weather condition
n/a

Description

Charlottesville-Albemarle Airport is a public use airport located 12 km north of Charlottesville, in Albemarle County, Virginia.

Climatology

Humid “subtropical” climate (Köppen climate classification Cfa) - characterized by hot, humid summers and cool winters. Significant amounts of precipitation occur in all seasons in most areas. Winter rainfall (and sometimes snowfall) is associated with large storms that the westerlies steer from west to east. Most summer rainfall occurs during thunderstorms and occasional tropical storms (hurricanes).

Runways

Designator Length Width Surface Rops
3/21 1829 46 ASP Yes/Yes
Airport map: 
Aerial View: 

SKYbrary Partners:

Safety knowledge contributed by: